sensor_id;sensor_type;location;lat;lon;timestamp;temperature;humidity
41939;DHT22;23057;48.554;14.454;2023-08-06T00:00:33;13.00;99.90
41939;DHT22;23057;48.554;14.454;2023-08-06T00:03:04;13.00;99.90
41939;DHT22;23057;48.554;14.454;2023-08-06T00:05:35;13.00;99.90
41939;DHT22;23057;48.554;14.454;2023-08-06T00:08:06;13.00;99.90
41939;DHT22;23057;48.554;14.454;2023-08-06T00:10:37;13.00;99.90
41939;DHT22;23057;48.554;14.454;2023-08-06T00:13:10;13.00;99.90
41939;DHT22;23057;48.554;14.454;2023-08-06T00:15:41;12.90;99.90
41939;DHT22;23057;48.554;14.454;2023-08-06T00:18:12;13.00;99.90
41939;DHT22;23057;48.554;14.454;2023-08-06T00:20:43;12.90;99.90
41939;DHT22;23057;48.554;14.454;2023-08-06T00:23:14;12.90;99.90
41939;DHT22;23057;48.554;14.454;2023-08-06T00:25:44;12.90;99.90
41939;DHT22;23057;48.554;14.454;2023-08-06T00:28:15;12.90;99.90
41939;DHT22;23057;48.554;14.454;2023-08-06T00:30:46;12.90;99.90
41939;DHT22;23057;48.554;14.454;2023-08-06T00:33:24;12.90;99.90
41939;DHT22;23057;48.554;14.454;2023-08-06T00:35:54;12.90;99.90
41939;DHT22;23057;48.554;14.454;2023-08-06T00:38:25;12.90;99.90
41939;DHT22;23057;48.554;14.454;2023-08-06T00:40:56;12.90;99.90
41939;DHT22;23057;48.554;14.454;2023-08-06T00:43:27;12.90;99.90
41939;DHT22;23057;48.554;14.454;2023-08-06T00:45:58;12.90;99.90
41939;DHT22;23057;48.554;14.454;2023-08-06T00:48:29;12.90;99.90
41939;DHT22;23057;48.554;14.454;2023-08-06T00:51:01;12.80;99.90
41939;DHT22;23057;48.554;14.454;2023-08-06T00:53:33;12.80;99.90
41939;DHT22;23057;48.554;14.454;2023-08-06T00:56:04;12.80;99.90
41939;DHT22;23057;48.554;14.454;2023-08-06T00:58:36;12.80;99.90
41939;DHT22;23057;48.554;14.454;2023-08-06T01:01:08;12.90;99.90
41939;DHT22;23057;48.554;14.454;2023-08-06T01:03:39;12.80;99.90
41939;DHT22;23057;48.554;14.454;2023-08-06T01:06:10;12.80;99.90
41939;DHT22;23057;48.554;14.454;2023-08-06T01:09:01;12.80;99.90
41939;DHT22;23057;48.554;14.454;2023-08-06T01:12:05;12.80;99.90
41939;DHT22;23057;48.554;14.454;2023-08-06T01:14:57;12.90;99.90
41939;DHT22;23057;48.554;14.454;2023-08-06T01:17:52;12.80;99.90
41939;DHT22;23057;48.554;14.454;2023-08-06T01:20:33;12.90;99.90
41939;DHT22;23057;48.554;14.454;2023-08-06T01:23:03;12.90;99.90
41939;DHT22;23057;48.554;14.454;2023-08-06T01:31:48;12.90;99.90
41939;DHT22;23057;48.554;14.454;2023-08-06T01:34:23;12.90;99.90
41939;DHT22;23057;48.554;14.454;2023-08-06T01:36:58;12.90;99.90
41939;DHT22;23057;48.554;14.454;2023-08-06T01:39:34;12.90;99.90
41939;DHT22;23057;48.554;14.454;2023-08-06T01:42:06;12.90;99.90
41939;DHT22;23057;48.554;14.454;2023-08-06T01:44:38;12.90;99.90
41939;DHT22;23057;48.554;14.454;2023-08-06T01:47:09;12.90;99.90
41939;DHT22;23057;48.554;14.454;2023-08-06T01:49:40;12.90;99.90
41939;DHT22;23057;48.554;14.454;2023-08-06T01:52:10;12.90;99.90
41939;DHT22;23057;48.554;14.454;2023-08-06T01:54:41;12.90;99.90
41939;DHT22;23057;48.554;14.454;2023-08-06T01:57:12;12.90;99.90
41939;DHT22;23057;48.554;14.454;2023-08-06T01:59:43;12.90;99.90
41939;DHT22;23057;48.554;14.454;2023-08-06T02:02:13;12.80;99.90
41939;DHT22;23057;48.554;14.454;2023-08-06T02:04:44;12.90;99.90
41939;DHT22;23057;48.554;14.454;2023-08-06T02:07:15;12.80;99.90
41939;DHT22;23057;48.554;14.454;2023-08-06T02:09:46;12.80;99.90
41939;DHT22;23057;48.554;14.454;2023-08-06T02:12:17;12.80;99.90
41939;DHT22;23057;48.554;14.454;2023-08-06T02:14:47;12.80;99.90
41939;DHT22;23057;48.554;14.454;2023-08-06T02:17:18;12.80;99.90
41939;DHT22;23057;48.554;14.454;2023-08-06T02:19:49;12.80;99.90
41939;DHT22;23057;48.554;14.454;2023-08-06T02:22:20;12.80;99.90
41939;DHT22;23057;48.554;14.454;2023-08-06T02:24:51;12.80;99.90
41939;DHT22;23057;48.554;14.454;2023-08-06T02:27:21;12.90;99.90
41939;DHT22;23057;48.554;14.454;2023-08-06T02:29:52;12.80;99.90
41939;DHT22;23057;48.554;14.454;2023-08-06T02:32:23;12.80;99.90
41939;DHT22;23057;48.554;14.454;2023-08-06T02:34:54;12.80;99.90
41939;DHT22;23057;48.554;14.454;2023-08-06T02:37:25;12.80;99.90
41939;DHT22;23057;48.554;14.454;2023-08-06T02:39:56;12.80;99.90
41939;DHT22;23057;48.554;14.454;2023-08-06T02:42:27;12.80;99.90
41939;DHT22;23057;48.554;14.454;2023-08-06T02:44:58;12.80;99.90
41939;DHT22;23057;48.554;14.454;2023-08-06T02:47:29;12.80;99.90
41939;DHT22;23057;48.554;14.454;2023-08-06T02:49:59;12.80;99.90
41939;DHT22;23057;48.554;14.454;2023-08-06T02:52:30;12.80;99.90
41939;DHT22;23057;48.554;14.454;2023-08-06T02:55:01;12.80;99.90
41939;DHT22;23057;48.554;14.454;2023-08-06T02:57:32;12.80;99.90
41939;DHT22;23057;48.554;14.454;2023-08-06T03:00:03;12.80;99.90
41939;DHT22;23057;48.554;14.454;2023-08-06T03:02:35;12.80;99.90
41939;DHT22;23057;48.554;14.454;2023-08-06T03:05:06;12.80;99.90
41939;DHT22;23057;48.554;14.454;2023-08-06T03:07:37;12.80;99.90
41939;DHT22;23057;48.554;14.454;2023-08-06T03:10:08;12.80;99.90
41939;DHT22;23057;48.554;14.454;2023-08-06T03:12:39;12.80;99.90
41939;DHT22;23057;48.554;14.454;2023-08-06T03:15:10;12.80;99.90
41939;DHT22;23057;48.554;14.454;2023-08-06T03:17:41;12.80;99.90
41939;DHT22;23057;48.554;14.454;2023-08-06T03:20:12;12.80;99.90
41939;DHT22;23057;48.554;14.454;2023-08-06T03:22:43;12.80;99.90
41939;DHT22;23057;48.554;14.454;2023-08-06T03:25:13;12.80;99.90
41939;DHT22;23057;48.554;14.454;2023-08-06T03:27:44;12.80;99.90
41939;DHT22;23057;48.554;14.454;2023-08-06T03:30:15;12.80;99.90
41939;DHT22;23057;48.554;14.454;2023-08-06T03:32:46;12.80;99.90
41939;DHT22;23057;48.554;14.454;2023-08-06T03:35:17;12.80;99.90
41939;DHT22;23057;48.554;14.454;2023-08-06T03:37:48;12.80;99.90
41939;DHT22;23057;48.554;14.454;2023-08-06T03:40:20;12.80;99.90
41939;DHT22;23057;48.554;14.454;2023-08-06T03:42:51;12.80;99.90
41939;DHT22;23057;48.554;14.454;2023-08-06T03:45:21;12.80;99.90
41939;DHT22;23057;48.554;14.454;2023-08-06T03:47:52;12.80;99.90
41939;DHT22;23057;48.554;14.454;2023-08-06T03:50:23;12.80;99.90
41939;DHT22;23057;48.554;14.454;2023-08-06T03:52:54;12.80;99.90
41939;DHT22;23057;48.554;14.454;2023-08-06T03:55:25;12.80;99.90
41939;DHT22;23057;48.554;14.454;2023-08-06T03:57:55;12.90;99.90
41939;DHT22;23057;48.554;14.454;2023-08-06T04:00:26;12.80;99.90
41939;DHT22;23057;48.554;14.454;2023-08-06T04:02:57;12.80;99.90
41939;DHT22;23057;48.554;14.454;2023-08-06T04:05:31;12.90;99.90
41939;DHT22;23057;48.554;14.454;2023-08-06T04:08:03;12.90;99.90
41939;DHT22;23057;48.554;14.454;2023-08-06T04:10:34;12.80;99.90
41939;DHT22;23057;48.554;14.454;2023-08-06T04:13:05;12.80;99.90
41939;DHT22;23057;48.554;14.454;2023-08-06T04:15:35;12.90;99.90
41939;DHT22;23057;48.554;14.454;2023-08-06T04:18:06;12.90;99.90
41939;DHT22;23057;48.554;14.454;2023-08-06T04:20:46;12.90;99.90
41939;DHT22;23057;48.554;14.454;2023-08-06T04:23:19;12.90;99.90
41939;DHT22;23057;48.554;14.454;2023-08-06T04:25:50;12.90;99.90
41939;DHT22;23057;48.554;14.454;2023-08-06T04:28:21;12.90;99.90
41939;DHT22;23057;48.554;14.454;2023-08-06T04:30:52;12.90;99.90
41939;DHT22;23057;48.554;14.454;2023-08-06T04:33:24;12.90;99.90
41939;DHT22;23057;48.554;14.454;2023-08-06T04:35:55;12.90;99.90
41939;DHT22;23057;48.554;14.454;2023-08-06T04:38:26;12.90;99.90
41939;DHT22;23057;48.554;14.454;2023-08-06T04:40:58;12.90;99.90
41939;DHT22;23057;48.554;14.454;2023-08-06T04:43:29;12.90;99.90
41939;DHT22;23057;48.554;14.454;2023-08-06T04:46:00;13.00;99.90
41939;DHT22;23057;48.554;14.454;2023-08-06T04:48:31;12.90;99.90
41939;DHT22;23057;48.554;14.454;2023-08-06T04:51:01;13.00;99.90
41939;DHT22;23057;48.554;14.454;2023-08-06T04:53:32;13.00;99.90
41939;DHT22;23057;48.554;14.454;2023-08-06T04:56:03;13.00;99.90
41939;DHT22;23057;48.554;14.454;2023-08-06T04:58:34;13.00;99.90
41939;DHT22;23057;48.554;14.454;2023-08-06T05:01:05;13.00;99.90
41939;DHT22;23057;48.554;14.454;2023-08-06T05:03:36;12.90;99.90
41939;DHT22;23057;48.554;14.454;2023-08-06T05:06:06;12.90;99.90
41939;DHT22;23057;48.554;14.454;2023-08-06T05:08:37;12.90;99.90
41939;DHT22;23057;48.554;14.454;2023-08-06T05:11:09;12.80;99.90
41939;DHT22;23057;48.554;14.454;2023-08-06T05:13:40;12.80;99.90
41939;DHT22;23057;48.554;14.454;2023-08-06T05:16:11;12.80;99.90
41939;DHT22;23057;48.554;14.454;2023-08-06T05:18:42;12.90;99.90
41939;DHT22;23057;48.554;14.454;2023-08-06T05:21:12;12.90;99.90
41939;DHT22;23057;48.554;14.454;2023-08-06T05:23:43;12.90;99.90
41939;DHT22;23057;48.554;14.454;2023-08-06T05:26:14;12.90;99.90
41939;DHT22;23057;48.554;14.454;2023-08-06T05:28:48;12.90;99.90
41939;DHT22;23057;48.554;14.454;2023-08-06T05:31:19;12.90;99.90
41939;DHT22;23057;48.554;14.454;2023-08-06T05:33:50;13.00;99.90
41939;DHT22;23057;48.554;14.454;2023-08-06T05:36:21;13.00;99.90
41939;DHT22;23057;48.554;14.454;2023-08-06T05:38:51;13.00;99.90
41939;DHT22;23057;48.554;14.454;2023-08-06T05:41:24;13.10;99.90
41939;DHT22;23057;48.554;14.454;2023-08-06T05:43:55;13.00;99.90
41939;DHT22;23057;48.554;14.454;2023-08-06T05:46:26;13.10;99.90
41939;DHT22;23057;48.554;14.454;2023-08-06T05:48:56;13.10;99.90
41939;DHT22;23057;48.554;14.454;2023-08-06T05:51:27;13.20;99.90
41939;DHT22;23057;48.554;14.454;2023-08-06T05:53:58;13.20;99.90
41939;DHT22;23057;48.554;14.454;2023-08-06T05:56:29;13.30;99.90
41939;DHT22;23057;48.554;14.454;2023-08-06T05:59:00;13.30;99.90
41939;DHT22;23057;48.554;14.454;2023-08-06T06:01:31;13.40;99.90
41939;DHT22;23057;48.554;14.454;2023-08-06T06:04:01;13.50;99.90
41939;DHT22;23057;48.554;14.454;2023-08-06T06:06:32;13.60;99.90
41939;DHT22;23057;48.554;14.454;2023-08-06T06:09:03;13.80;99.90
41939;DHT22;23057;48.554;14.454;2023-08-06T06:11:34;13.70;99.90
41939;DHT22;23057;48.554;14.454;2023-08-06T06:14:05;13.80;99.90
41939;DHT22;23057;48.554;14.454;2023-08-06T06:16:36;13.90;99.90
41939;DHT22;23057;48.554;14.454;2023-08-06T06:19:06;14.00;99.90
41939;DHT22;23057;48.554;14.454;2023-08-06T06:21:37;14.20;99.90
41939;DHT22;23057;48.554;14.454;2023-08-06T06:24:09;14.30;99.90
41939;DHT22;23057;48.554;14.454;2023-08-06T06:26:40;14.20;99.90
41939;DHT22;23057;48.554;14.454;2023-08-06T06:29:10;14.20;99.90
41939;DHT22;23057;48.554;14.454;2023-08-06T06:31:41;14.20;99.90
41939;DHT22;23057;48.554;14.454;2023-08-06T06:34:12;14.00;99.90
41939;DHT22;23057;48.554;14.454;2023-08-06T06:36:43;14.00;99.90
41939;DHT22;23057;48.554;14.454;2023-08-06T06:39:13;14.00;99.90
41939;DHT22;23057;48.554;14.454;2023-08-06T06:41:46;14.00;99.90
41939;DHT22;23057;48.554;14.454;2023-08-06T06:44:16;14.10;99.90
41939;DHT22;23057;48.554;14.454;2023-08-06T06:46:47;14.10;99.90
41939;DHT22;23057;48.554;14.454;2023-08-06T06:49:18;14.10;99.90
41939;DHT22;23057;48.554;14.454;2023-08-06T06:51:49;14.10;99.90
41939;DHT22;23057;48.554;14.454;2023-08-06T06:54:21;14.00;99.90
41939;DHT22;23057;48.554;14.454;2023-08-06T06:56:52;14.10;99.90
41939;DHT22;23057;48.554;14.454;2023-08-06T06:59:22;14.10;99.90
41939;DHT22;23057;48.554;14.454;2023-08-06T07:01:53;14.10;99.90
41939;DHT22;23057;48.554;14.454;2023-08-06T07:04:24;14.10;99.90
41939;DHT22;23057;48.554;14.454;2023-08-06T07:06:55;14.20;99.90
41939;DHT22;23057;48.554;14.454;2023-08-06T07:09:26;14.20;99.90
41939;DHT22;23057;48.554;14.454;2023-08-06T07:11:57;14.30;99.90
41939;DHT22;23057;48.554;14.454;2023-08-06T07:14:28;14.20;99.90
41939;DHT22;23057;48.554;14.454;2023-08-06T07:16:59;14.30;99.90
41939;DHT22;23057;48.554;14.454;2023-08-06T07:19:30;14.50;99.90
41939;DHT22;23057;48.554;14.454;2023-08-06T07:22:01;14.60;99.90
41939;DHT22;23057;48.554;14.454;2023-08-06T07:24:31;14.70;99.90
41939;DHT22;23057;48.554;14.454;2023-08-06T07:27:02;14.70;99.90
41939;DHT22;23057;48.554;14.454;2023-08-06T07:29:34;14.60;99.90
41939;DHT22;23057;48.554;14.454;2023-08-06T07:32:06;14.70;99.90
41939;DHT22;23057;48.554;14.454;2023-08-06T07:34:38;14.40;99.90
41939;DHT22;23057;48.554;14.454;2023-08-06T07:37:08;14.50;99.90
41939;DHT22;23057;48.554;14.454;2023-08-06T07:39:39;14.60;99.90
41939;DHT22;23057;48.554;14.454;2023-08-06T07:42:12;14.50;99.90
41939;DHT22;23057;48.554;14.454;2023-08-06T07:44:42;14.50;99.90
41939;DHT22;23057;48.554;14.454;2023-08-06T07:47:13;14.50;99.90
41939;DHT22;23057;48.554;14.454;2023-08-06T07:49:44;14.40;99.90
41939;DHT22;23057;48.554;14.454;2023-08-06T07:52:15;14.40;99.90
41939;DHT22;23057;48.554;14.454;2023-08-06T07:54:46;14.30;99.90
41939;DHT22;23057;48.554;14.454;2023-08-06T07:57:17;14.40;99.90
41939;DHT22;23057;48.554;14.454;2023-08-06T07:59:47;14.30;99.90
41939;DHT22;23057;48.554;14.454;2023-08-06T08:02:19;14.30;99.90
41939;DHT22;23057;48.554;14.454;2023-08-06T08:04:50;14.40;99.90
41939;DHT22;23057;48.554;14.454;2023-08-06T08:07:21;14.40;99.90
41939;DHT22;23057;48.554;14.454;2023-08-06T08:09:52;14.30;99.90
41939;DHT22;23057;48.554;14.454;2023-08-06T08:12:22;14.30;99.90
41939;DHT22;23057;48.554;14.454;2023-08-06T08:14:53;14.50;99.90
41939;DHT22;23057;48.554;14.454;2023-08-06T08:17:24;14.50;99.90
41939;DHT22;23057;48.554;14.454;2023-08-06T08:19:55;14.70;99.90
41939;DHT22;23057;48.554;14.454;2023-08-06T08:22:26;14.60;99.90
41939;DHT22;23057;48.554;14.454;2023-08-06T08:24:56;14.60;99.90
41939;DHT22;23057;48.554;14.454;2023-08-06T08:27:27;14.70;99.90
41939;DHT22;23057;48.554;14.454;2023-08-06T08:29:58;14.70;99.90
41939;DHT22;23057;48.554;14.454;2023-08-06T08:32:29;14.60;99.90
41939;DHT22;23057;48.554;14.454;2023-08-06T08:35:00;14.50;99.90
41939;DHT22;23057;48.554;14.454;2023-08-06T08:37:31;14.60;99.90
41939;DHT22;23057;48.554;14.454;2023-08-06T08:40:02;14.90;99.90
41939;DHT22;23057;48.554;14.454;2023-08-06T08:42:35;15.00;99.90
41939;DHT22;23057;48.554;14.454;2023-08-06T08:45:12;15.10;99.90
41939;DHT22;23057;48.554;14.454;2023-08-06T08:47:45;15.00;99.90
41939;DHT22;23057;48.554;14.454;2023-08-06T08:50:18;15.00;99.90
41939;DHT22;23057;48.554;14.454;2023-08-06T08:52:50;15.20;99.90
41939;DHT22;23057;48.554;14.454;2023-08-06T08:55:22;15.20;99.90
41939;DHT22;23057;48.554;14.454;2023-08-06T08:57:54;15.20;99.90
41939;DHT22;23057;48.554;14.454;2023-08-06T09:00:25;15.20;99.90
41939;DHT22;23057;48.554;14.454;2023-08-06T09:02:58;15.10;99.90
41939;DHT22;23057;48.554;14.454;2023-08-06T09:05:32;14.80;99.90
41939;DHT22;23057;48.554;14.454;2023-08-06T09:08:05;14.80;99.90
41939;DHT22;23057;48.554;14.454;2023-08-06T09:10:36;14.80;99.90
41939;DHT22;23057;48.554;14.454;2023-08-06T09:13:11;14.80;99.90
41939;DHT22;23057;48.554;14.454;2023-08-06T09:15:42;15.00;99.90
41939;DHT22;23057;48.554;14.454;2023-08-06T09:18:14;14.50;99.90
41939;DHT22;23057;48.554;14.454;2023-08-06T09:20:45;14.10;99.90
41939;DHT22;23057;48.554;14.454;2023-08-06T09:23:16;13.90;99.90
41939;DHT22;23057;48.554;14.454;2023-08-06T09:25:47;13.70;99.90
41939;DHT22;23057;48.554;14.454;2023-08-06T09:28:18;13.70;99.90
41939;DHT22;23057;48.554;14.454;2023-08-06T09:30:48;13.70;99.90
41939;DHT22;23057;48.554;14.454;2023-08-06T09:33:19;13.70;99.90
41939;DHT22;23057;48.554;14.454;2023-08-06T09:35:53;13.70;99.90
41939;DHT22;23057;48.554;14.454;2023-08-06T09:38:25;13.90;99.90
41939;DHT22;23057;48.554;14.454;2023-08-06T09:41:10;14.00;99.90
41939;DHT22;23057;48.554;14.454;2023-08-06T09:43:42;14.20;99.90
41939;DHT22;23057;48.554;14.454;2023-08-06T09:46:14;14.30;99.90
41939;DHT22;23057;48.554;14.454;2023-08-06T09:48:46;14.30;99.90
41939;DHT22;23057;48.554;14.454;2023-08-06T09:51:20;14.30;99.90
41939;DHT22;23057;48.554;14.454;2023-08-06T09:53:51;14.50;99.90
41939;DHT22;23057;48.554;14.454;2023-08-06T09:56:23;14.70;99.90
41939;DHT22;23057;48.554;14.454;2023-08-06T09:58:57;14.70;99.90
41939;DHT22;23057;48.554;14.454;2023-08-06T10:01:28;14.80;99.90
41939;DHT22;23057;48.554;14.454;2023-08-06T10:04:00;14.80;99.90
41939;DHT22;23057;48.554;14.454;2023-08-06T10:06:36;14.80;99.90
41939;DHT22;23057;48.554;14.454;2023-08-06T10:09:08;14.70;99.90
41939;DHT22;23057;48.554;14.454;2023-08-06T10:11:40;14.80;99.90
41939;DHT22;23057;48.554;14.454;2023-08-06T10:14:19;15.00;99.90
41939;DHT22;23057;48.554;14.454;2023-08-06T10:16:58;15.30;99.90
41939;DHT22;23057;48.554;14.454;2023-08-06T10:19:31;15.30;99.90
41939;DHT22;23057;48.554;14.454;2023-08-06T10:24:56;15.40;99.90
41939;DHT22;23057;48.554;14.454;2023-08-06T10:27:32;15.40;99.90
41939;DHT22;23057;48.554;14.454;2023-08-06T10:33:02;15.40;99.90
41939;DHT22;23057;48.554;14.454;2023-08-06T10:35:46;15.10;99.90
41939;DHT22;23057;48.554;14.454;2023-08-06T10:38:25;14.90;99.90
41939;DHT22;23057;48.554;14.454;2023-08-06T10:43:34;14.80;99.90
41939;DHT22;23057;48.554;14.454;2023-08-06T10:46:26;14.70;99.90
41939;DHT22;23057;48.554;14.454;2023-08-06T10:48:58;14.60;99.90
41939;DHT22;23057;48.554;14.454;2023-08-06T10:51:30;14.60;99.90
41939;DHT22;23057;48.554;14.454;2023-08-06T10:54:01;14.80;99.90
41939;DHT22;23057;48.554;14.454;2023-08-06T10:56:40;14.90;99.90
41939;DHT22;23057;48.554;14.454;2023-08-06T10:59:15;15.10;99.90
41939;DHT22;23057;48.554;14.454;2023-08-06T11:01:46;15.60;99.90
41939;DHT22;23057;48.554;14.454;2023-08-06T11:04:17;15.80;99.90
41939;DHT22;23057;48.554;14.454;2023-08-06T11:06:52;16.10;99.90
41939;DHT22;23057;48.554;14.454;2023-08-06T11:09:23;16.10;99.90
41939;DHT22;23057;48.554;14.454;2023-08-06T11:11:54;16.30;99.90
41939;DHT22;23057;48.554;14.454;2023-08-06T11:14:25;16.50;99.90
41939;DHT22;23057;48.554;14.454;2023-08-06T11:16:56;16.30;1.00
41939;DHT22;23057;48.554;14.454;2023-08-06T11:19:27;16.40;99.90
41939;DHT22;23057;48.554;14.454;2023-08-06T11:21:58;17.00;1.00
41939;DHT22;23057;48.554;14.454;2023-08-06T11:24:29;17.20;99.90
41939;DHT22;23057;48.554;14.454;2023-08-06T11:27:00;17.50;99.90
41939;DHT22;23057;48.554;14.454;2023-08-06T11:29:38;17.70;99.90
41939;DHT22;23057;48.554;14.454;2023-08-06T11:32:09;17.30;99.90
41939;DHT22;23057;48.554;14.454;2023-08-06T11:34:41;17.00;99.90
41939;DHT22;23057;48.554;14.454;2023-08-06T11:37:13;17.00;99.90
41939;DHT22;23057;48.554;14.454;2023-08-06T11:39:46;17.20;99.90
41939;DHT22;23057;48.554;14.454;2023-08-06T11:42:20;17.40;99.90
41939;DHT22;23057;48.554;14.454;2023-08-06T11:44:51;17.40;99.90
41939;DHT22;23057;48.554;14.454;2023-08-06T11:47:22;16.90;99.90
41939;DHT22;23057;48.554;14.454;2023-08-06T11:49:53;16.20;99.90
41939;DHT22;23057;48.554;14.454;2023-08-06T11:52:25;15.80;99.90
41939;DHT22;23057;48.554;14.454;2023-08-06T11:55:04;15.60;99.90
41939;DHT22;23057;48.554;14.454;2023-08-06T11:57:39;15.70;99.90
41939;DHT22;23057;48.554;14.454;2023-08-06T12:00:15;15.90;1.00
41939;DHT22;23057;48.554;14.454;2023-08-06T12:02:49;15.90;1.00
41939;DHT22;23057;48.554;14.454;2023-08-06T12:05:23;15.70;99.90
41939;DHT22;23057;48.554;14.454;2023-08-06T12:08:01;15.60;99.90
41939;DHT22;23057;48.554;14.454;2023-08-06T12:10:33;16.00;99.90
41939;DHT22;23057;48.554;14.454;2023-08-06T12:13:04;15.90;99.90
41939;DHT22;23057;48.554;14.454;2023-08-06T12:15:35;15.70;99.90
41939;DHT22;23057;48.554;14.454;2023-08-06T12:18:06;15.80;99.90
41939;DHT22;23057;48.554;14.454;2023-08-06T12:20:38;15.80;99.90
41939;DHT22;23057;48.554;14.454;2023-08-06T12:23:09;16.00;99.90
41939;DHT22;23057;48.554;14.454;2023-08-06T12:25:40;16.00;99.90
41939;DHT22;23057;48.554;14.454;2023-08-06T12:28:11;16.00;99.90
41939;DHT22;23057;48.554;14.454;2023-08-06T12:30:43;16.10;99.90
41939;DHT22;23057;48.554;14.454;2023-08-06T12:33:15;16.20;99.90
41939;DHT22;23057;48.554;14.454;2023-08-06T12:35:46;16.40;99.90
41939;DHT22;23057;48.554;14.454;2023-08-06T12:38:17;16.70;99.90
41939;DHT22;23057;48.554;14.454;2023-08-06T12:40:47;16.70;99.90
41939;DHT22;23057;48.554;14.454;2023-08-06T12:43:18;16.30;28.90
41939;DHT22;23057;48.554;14.454;2023-08-06T12:45:49;15.70;1.00
41939;DHT22;23057;48.554;14.454;2023-08-06T12:48:20;15.50;99.90
41939;DHT22;23057;48.554;14.454;2023-08-06T12:50:51;15.30;99.90
41939;DHT22;23057;48.554;14.454;2023-08-06T12:53:22;14.70;99.90
41939;DHT22;23057;48.554;14.454;2023-08-06T12:55:53;14.40;99.90
41939;DHT22;23057;48.554;14.454;2023-08-06T12:58:24;14.10;99.90
41939;DHT22;23057;48.554;14.454;2023-08-06T13:00:55;14.00;99.90
41939;DHT22;23057;48.554;14.454;2023-08-06T13:03:26;13.90;99.90
41939;DHT22;23057;48.554;14.454;2023-08-06T13:05:58;13.90;99.90
41939;DHT22;23057;48.554;14.454;2023-08-06T13:08:29;14.00;99.90
41939;DHT22;23057;48.554;14.454;2023-08-06T13:11:00;14.00;99.90
41939;DHT22;23057;48.554;14.454;2023-08-06T13:13:31;14.20;99.90
41939;DHT22;23057;48.554;14.454;2023-08-06T13:16:02;14.50;99.90
41939;DHT22;23057;48.554;14.454;2023-08-06T13:18:33;14.60;99.90
41939;DHT22;23057;48.554;14.454;2023-08-06T13:21:04;14.90;99.90
41939;DHT22;23057;48.554;14.454;2023-08-06T13:23:34;15.20;99.90
41939;DHT22;23057;48.554;14.454;2023-08-06T13:26:06;15.30;99.90
41939;DHT22;23057;48.554;14.454;2023-08-06T13:28:37;15.40;99.90
41939;DHT22;23057;48.554;14.454;2023-08-06T13:31:09;15.50;99.90
41939;DHT22;23057;48.554;14.454;2023-08-06T13:33:39;15.50;99.90
41939;DHT22;23057;48.554;14.454;2023-08-06T13:36:10;15.40;99.90
41939;DHT22;23057;48.554;14.454;2023-08-06T13:38:41;15.60;99.90
41939;DHT22;23057;48.554;14.454;2023-08-06T13:41:12;15.90;99.90
41939;DHT22;23057;48.554;14.454;2023-08-06T13:43:43;16.00;99.90
41939;DHT22;23057;48.554;14.454;2023-08-06T13:46:15;15.50;99.90
41939;DHT22;23057;48.554;14.454;2023-08-06T13:48:50;15.00;99.90
41939;DHT22;23057;48.554;14.454;2023-08-06T13:51:23;14.70;99.90
41939;DHT22;23057;48.554;14.454;2023-08-06T13:53:54;14.50;99.90
41939;DHT22;23057;48.554;14.454;2023-08-06T13:56:27;14.20;99.90
41939;DHT22;23057;48.554;14.454;2023-08-06T13:58:59;14.10;99.90
41939;DHT22;23057;48.554;14.454;2023-08-06T14:01:30;14.10;99.90
41939;DHT22;23057;48.554;14.454;2023-08-06T14:04:01;14.20;99.90
41939;DHT22;23057;48.554;14.454;2023-08-06T14:06:32;14.00;99.90
41939;DHT22;23057;48.554;14.454;2023-08-06T14:09:03;14.00;99.90
41939;DHT22;23057;48.554;14.454;2023-08-06T14:11:34;14.00;99.90
41939;DHT22;23057;48.554;14.454;2023-08-06T14:14:05;13.70;99.90
41939;DHT22;23057;48.554;14.454;2023-08-06T14:16:36;13.80;99.90
41939;DHT22;23057;48.554;14.454;2023-08-06T14:19:07;13.70;99.90
41939;DHT22;23057;48.554;14.454;2023-08-06T14:21:37;13.80;99.90
41939;DHT22;23057;48.554;14.454;2023-08-06T14:24:08;14.00;99.90
41939;DHT22;23057;48.554;14.454;2023-08-06T14:26:39;13.90;99.90
41939;DHT22;23057;48.554;14.454;2023-08-06T14:29:10;14.00;99.90
41939;DHT22;23057;48.554;14.454;2023-08-06T14:31:41;13.90;99.90
41939;DHT22;23057;48.554;14.454;2023-08-06T14:34:12;13.90;99.90
41939;DHT22;23057;48.554;14.454;2023-08-06T14:36:42;13.70;99.90
41939;DHT22;23057;48.554;14.454;2023-08-06T14:39:13;13.70;99.90
41939;DHT22;23057;48.554;14.454;2023-08-06T14:41:44;13.70;99.90
41939;DHT22;23057;48.554;14.454;2023-08-06T14:44:15;13.70;99.90
41939;DHT22;23057;48.554;14.454;2023-08-06T14:46:46;13.70;99.90
41939;DHT22;23057;48.554;14.454;2023-08-06T14:49:17;13.80;99.90
41939;DHT22;23057;48.554;14.454;2023-08-06T14:51:48;13.80;99.90
41939;DHT22;23057;48.554;14.454;2023-08-06T14:54:18;13.90;99.90
41939;DHT22;23057;48.554;14.454;2023-08-06T14:56:49;13.90;99.90
41939;DHT22;23057;48.554;14.454;2023-08-06T14:59:20;13.80;99.90
41939;DHT22;23057;48.554;14.454;2023-08-06T15:01:51;13.70;99.90
41939;DHT22;23057;48.554;14.454;2023-08-06T15:04:22;13.50;99.90
41939;DHT22;23057;48.554;14.454;2023-08-06T15:06:54;13.50;99.90
41939;DHT22;23057;48.554;14.454;2023-08-06T15:09:25;13.40;99.90
41939;DHT22;23057;48.554;14.454;2023-08-06T15:11:56;13.30;99.90
41939;DHT22;23057;48.554;14.454;2023-08-06T15:14:26;13.20;99.90
41939;DHT22;23057;48.554;14.454;2023-08-06T15:16:57;13.10;99.90
41939;DHT22;23057;48.554;14.454;2023-08-06T15:19:28;13.10;99.90
41939;DHT22;23057;48.554;14.454;2023-08-06T15:21:59;13.10;99.90
41939;DHT22;23057;48.554;14.454;2023-08-06T15:24:30;13.20;99.90
41939;DHT22;23057;48.554;14.454;2023-08-06T15:27:00;13.20;99.90
41939;DHT22;23057;48.554;14.454;2023-08-06T15:29:31;13.20;99.90
41939;DHT22;23057;48.554;14.454;2023-08-06T15:32:02;13.30;99.90
41939;DHT22;23057;48.554;14.454;2023-08-06T15:34:34;13.50;99.90
41939;DHT22;23057;48.554;14.454;2023-08-06T15:37:05;13.60;99.90
41939;DHT22;23057;48.554;14.454;2023-08-06T15:39:37;13.70;99.90
41939;DHT22;23057;48.554;14.454;2023-08-06T15:42:08;13.70;99.90
41939;DHT22;23057;48.554;14.454;2023-08-06T15:44:40;13.80;99.90
41939;DHT22;23057;48.554;14.454;2023-08-06T15:47:11;13.90;99.90
41939;DHT22;23057;48.554;14.454;2023-08-06T15:49:42;13.90;99.90
41939;DHT22;23057;48.554;14.454;2023-08-06T15:52:14;14.00;99.90
41939;DHT22;23057;48.554;14.454;2023-08-06T15:54:44;14.00;99.90
41939;DHT22;23057;48.554;14.454;2023-08-06T15:57:15;13.90;99.90